createdAt,value
2018-04-02T00:00:38.299Z,78.61
2018-04-02T00:01:38.525Z,78.80
2018-04-02T00:02:38.751Z,78.80
2018-04-02T00:03:38.977Z,79.08
2018-04-02T00:04:39.202Z,79.08
2018-04-02T00:05:39.429Z,79.04
2018-04-02T00:06:39.654Z,79.46
2018-04-02T00:07:39.882Z,79.55
2018-04-02T00:08:40.102Z,79.99
2018-04-02T00:09:40.329Z,79.80
2018-04-02T00:10:40.562Z,79.52
2018-04-02T00:11:40.779Z,79.33
2018-04-02T00:12:41.003Z,79.74
2018-04-02T00:13:41.229Z,78.99
2018-04-02T00:14:41.454Z,78.89
2018-04-02T00:15:41.699Z,78.70
2018-04-02T00:16:41.902Z,78.80
2018-04-02T00:17:42.128Z,78.51
2018-04-02T00:18:42.348Z,78.70
2018-04-02T00:19:42.571Z,77.94
2018-04-02T00:20:42.790Z,78.80
2018-04-02T00:21:43.019Z,78.23
2018-04-02T00:22:43.245Z,78.32
2018-04-02T00:23:43.472Z,78.23
2018-04-02T00:24:43.696Z,77.84
2018-04-02T00:25:43.920Z,78.03
2018-04-02T00:26:44.146Z,77.66
2018-04-02T00:27:44.375Z,78.61
2018-04-02T00:28:44.599Z,78.70
2018-04-02T00:29:44.824Z,78.80
2018-04-02T00:30:45.052Z,78.80
2018-04-02T00:31:45.277Z,77.66
2018-04-02T00:32:45.501Z,77.94
2018-04-02T00:33:45.725Z,78.03
2018-04-02T00:34:45.943Z,77.66
2018-04-02T00:35:46.167Z,77.84
2018-04-02T00:36:46.394Z,77.56
2018-04-02T00:37:46.616Z,77.56
2018-04-02T00:38:46.838Z,77.18
2018-04-02T00:39:47.050Z,77.47
2018-04-02T00:40:47.271Z,76.99
2018-04-02T00:41:47.495Z,77.09
2018-04-02T00:42:47.718Z,77.18
2018-04-02T00:43:47.944Z,77.09
2018-04-02T00:44:48.171Z,77.94
2018-04-02T00:45:48.396Z,77.75
2018-04-02T00:46:48.620Z,77.75
2018-04-02T00:47:48.855Z,76.99
2018-04-02T00:48:49.114Z,76.90
2018-04-02T00:49:49.311Z,77.84
2018-04-02T00:50:49.522Z,77.47
2018-04-02T00:51:49.744Z,77.47
2018-04-02T00:52:49.971Z,77.47
2018-04-02T00:53:50.201Z,77.47
2018-04-02T00:54:50.423Z,76.99
2018-04-02T00:55:50.679Z,77.37
2018-04-02T00:56:50.873Z,77.09
2018-04-02T00:57:51.096Z,77.18
2018-04-02T00:58:51.318Z,77.09
2018-04-02T00:59:51.542Z,76.80
2018-04-02T01:00:51.766Z,77.28
2018-04-02T01:01:51.992Z,77.18
2018-04-02T01:02:52.217Z,77.09
2018-04-02T01:03:52.442Z,77.47
2018-04-02T01:04:52.671Z,77.09
2018-04-02T01:05:52.893Z,77.75
2018-04-02T01:06:53.119Z,77.09
2018-04-02T01:07:53.342Z,77.47
2018-04-02T01:08:53.563Z,76.80
2018-04-02T01:09:53.784Z,76.99
2018-04-02T01:10:54.009Z,77.84
2018-04-02T01:11:54.239Z,77.84
2018-04-02T01:12:54.461Z,77.66
2018-04-02T01:13:54.685Z,77.84
2018-04-02T01:14:54.912Z,78.03
2018-04-02T01:15:55.135Z,77.75
2018-04-02T01:16:55.360Z,77.75
2018-04-02T01:17:55.585Z,78.51
2018-04-02T01:18:55.810Z,78.61
2018-04-02T01:19:56.039Z,78.99
2018-04-02T01:20:56.263Z,79.55
2018-04-02T01:21:56.512Z,80.13
2018-04-02T01:22:56.736Z,79.84
2018-04-02T01:23:56.963Z,79.55
2018-04-02T01:24:57.189Z,79.74
2018-04-02T01:25:57.412Z,80.08
2018-04-02T01:26:57.641Z,80.56
2018-04-02T01:27:57.866Z,80.65
2018-04-02T01:28:58.095Z,80.46
2018-04-02T01:29:58.319Z,81.23
2018-04-02T01:30:58.547Z,81.13
2018-04-02T01:31:58.771Z,80.37
2018-04-02T01:32:59.004Z,80.65
2018-04-02T01:33:59.218Z,80.27
2018-04-02T01:34:59.448Z,80.75
2018-04-02T01:35:59.668Z,80.13
2018-04-02T01:36:59.897Z,79.65
2018-04-02T01:38:00.122Z,79.42
2018-04-02T01:39:00.348Z,79.04
2018-04-02T01:40:00.574Z,79.42
2018-04-02T01:41:00.797Z,78.80
2018-04-02T01:42:01.021Z,78.85
2018-04-02T01:43:01.247Z,78.95
2018-04-02T01:44:01.465Z,79.52
2018-04-02T01:45:01.686Z,79.14
2018-04-02T01:46:01.914Z,79.52
2018-04-02T01:47:02.136Z,79.14
2018-04-02T01:48:02.362Z,79.23
2018-04-02T01:49:02.587Z,79.14
2018-04-02T01:50:02.816Z,80.27
2018-04-02T01:51:03.037Z,80.46
2018-04-02T01:52:03.263Z,81.04
2018-04-02T01:53:03.489Z,81.60
2018-04-02T01:54:03.715Z,81.88
2018-04-02T01:55:03.938Z,81.79
2018-04-02T01:56:04.164Z,81.32
2018-04-02T01:57:04.390Z,81.51
2018-04-02T01:58:04.613Z,82.17
2018-04-02T01:59:04.840Z,82.65
2018-04-02T02:00:05.065Z,82.27
2018-04-02T02:01:05.293Z,81.60
2018-04-02T02:02:05.515Z,80.84
2018-04-02T02:03:05.742Z,80.56
2018-04-02T02:04:05.966Z,81.04
2018-04-02T02:05:06.190Z,81.23
2018-04-02T02:06:06.415Z,80.75
2018-04-02T02:07:06.639Z,81.13
2018-04-02T02:08:06.867Z,81.32
2018-04-02T02:09:07.091Z,81.41
2018-04-02T02:10:07.314Z,80.65
2018-04-02T02:11:07.538Z,80.08
2018-04-02T02:12:07.764Z,80.27
2018-04-02T02:13:08.008Z,80.46
2018-04-02T02:14:08.228Z,80.27
2018-04-02T02:15:08.457Z,80.46
2018-04-02T02:16:08.678Z,80.46
2018-04-02T02:17:08.907Z,80.46
2018-04-02T02:18:09.127Z,81.04
2018-04-02T02:19:09.354Z,81.13
2018-04-02T02:20:09.580Z,81.51
2018-04-02T02:21:09.805Z,81.04
2018-04-02T02:22:10.031Z,81.79
2018-04-02T02:23:10.260Z,81.88
2018-04-02T02:24:10.478Z,81.70
2018-04-02T02:25:10.705Z,81.41
2018-04-02T02:26:10.926Z,81.98
2018-04-02T02:27:11.155Z,81.60
2018-04-02T02:28:11.379Z,82.65
2018-04-02T02:29:11.605Z,83.07
2018-04-02T02:30:11.831Z,82.97
2018-04-02T02:31:12.055Z,82.88
2018-04-02T02:32:12.282Z,83.16
2018-04-02T02:33:12.505Z,82.97
2018-04-02T02:34:12.728Z,82.97
2018-04-02T02:35:12.950Z,82.69
2018-04-02T02:36:13.175Z,82.69
2018-04-02T02:37:13.397Z,82.59
2018-04-02T02:38:13.617Z,82.12
2018-04-02T02:39:13.843Z,80.98
2018-04-02T02:40:14.069Z,80.79
2018-04-02T02:41:14.292Z,80.41
2018-04-02T02:42:14.517Z,80.51
2018-04-02T02:43:14.736Z,80.13
2018-04-02T02:44:14.957Z,80.32
2018-04-02T02:45:15.185Z,79.65
2018-04-02T02:46:15.405Z,80.03
2018-04-02T02:47:15.628Z,80.60
2018-04-02T02:48:15.861Z,80.60
2018-04-02T02:49:16.083Z,81.36
2018-04-02T02:50:16.305Z,80.69
2018-04-02T02:51:16.540Z,81.17
2018-04-02T02:52:16.759Z,81.45
2018-04-02T02:53:16.977Z,81.55
2018-04-02T02:54:17.221Z,81.65
2018-04-02T02:55:17.447Z,82.88
2018-04-02T02:56:17.673Z,81.93
2018-04-02T02:57:17.896Z,81.55
2018-04-02T02:58:18.129Z,81.55
2018-04-02T02:59:18.348Z,81.45
2018-04-02T03:00:18.577Z,81.65
2018-04-02T03:01:18.799Z,81.26
2018-04-02T03:02:19.024Z,81.36
2018-04-02T03:03:19.249Z,81.07
2018-04-02T03:04:19.469Z,80.51
2018-04-02T03:05:20.219Z,80.13
2018-04-02T03:06:19.956Z,81.55
2018-04-02T03:07:20.188Z,81.45
2018-04-02T03:08:20.406Z,81.36
2018-04-02T03:09:20.631Z,80.88
2018-04-02T03:10:20.855Z,81.93
2018-04-02T03:11:21.078Z,82.31
2018-04-02T03:12:21.306Z,82.27
2018-04-02T03:13:21.531Z,83.03
2018-04-02T03:14:21.758Z,83.22
2018-04-02T03:15:22.034Z,82.84
2018-04-02T03:16:22.251Z,82.93
2018-04-02T03:17:22.479Z,81.88
2018-04-02T03:18:22.708Z,81.79
2018-04-02T03:19:22.930Z,82.36
2018-04-02T03:20:23.155Z,81.70
2018-04-02T03:21:23.383Z,81.41
2018-04-02T03:22:23.615Z,81.79
2018-04-02T03:23:23.837Z,81.51
2018-04-02T03:24:24.060Z,81.98
2018-04-02T03:25:24.279Z,81.98
2018-04-02T03:26:24.502Z,81.51
2018-04-02T03:27:24.735Z,81.32
2018-04-02T03:28:24.961Z,82.17
2018-04-02T03:29:25.183Z,83.31
2018-04-02T03:30:25.408Z,82.93
2018-04-02T03:31:25.633Z,81.79
2018-04-02T03:32:25.858Z,81.98
2018-04-02T03:33:26.080Z,82.65
2018-04-02T03:34:26.301Z,82.84
2018-04-02T03:35:26.526Z,83.22
2018-04-02T03:36:26.752Z,82.93
2018-04-02T03:37:26.974Z,82.36
2018-04-02T03:38:27.199Z,82.08
2018-04-02T03:39:27.429Z,82.36
2018-04-02T03:40:27.653Z,82.46
2018-04-02T03:41:27.883Z,84.17
2018-04-02T03:42:28.111Z,83.78
2018-04-02T03:43:28.338Z,83.31
2018-04-02T03:44:28.562Z,82.84
2018-04-02T03:45:28.788Z,82.74
2018-04-02T03:46:29.013Z,82.74
2018-04-02T03:47:29.237Z,82.36
2018-04-02T03:48:29.466Z,82.17
2018-04-02T03:49:29.685Z,82.74
2018-04-02T03:50:29.908Z,83.03
2018-04-02T03:51:30.135Z,83.03
2018-04-02T03:52:30.356Z,82.65
2018-04-02T03:53:30.580Z,82.74
2018-04-02T03:54:30.838Z,82.65
2018-04-02T03:55:31.016Z,82.74
2018-04-02T03:56:31.238Z,82.84
2018-04-02T03:57:31.460Z,83.22
2018-04-02T03:58:31.765Z,83.22
2018-04-02T03:59:31.926Z,83.59
2018-04-02T04:00:32.156Z,83.59
2018-04-02T04:01:32.381Z,83.88
2018-04-02T04:02:32.604Z,84.36
2018-04-02T04:03:32.831Z,83.88
2018-04-02T04:04:33.056Z,83.97
2018-04-02T04:05:33.280Z,84.36
2018-04-02T04:06:33.505Z,84.36
2018-04-02T04:07:33.736Z,84.26
2018-04-02T04:08:33.963Z,84.17
2018-04-02T04:09:34.191Z,84.36
2018-04-02T04:10:34.413Z,83.88
2018-04-02T04:11:34.635Z,84.31
2018-04-02T04:12:34.859Z,84.92
2018-04-02T04:13:35.086Z,85.07
2018-04-02T04:14:35.312Z,85.30
2018-04-02T04:15:35.550Z,84.88
2018-04-02T04:16:35.764Z,85.36
2018-04-02T04:17:35.991Z,85.26
2018-04-02T04:18:36.238Z,85.93
2018-04-02T04:19:36.460Z,86.59
2018-04-02T04:20:36.705Z,86.40
2018-04-02T04:21:36.972Z,86.59
2018-04-02T04:22:37.143Z,85.83
2018-04-02T04:23:37.367Z,86.59
2018-04-02T04:24:37.591Z,86.59
2018-04-02T04:25:37.818Z,86.02
2018-04-02T04:26:38.044Z,84.92
2018-04-02T04:27:38.264Z,84.88
2018-04-02T04:28:38.489Z,85.17
2018-04-02T04:29:38.710Z,85.93
2018-04-02T04:30:38.931Z,86.02
2018-04-02T04:31:39.159Z,85.74
2018-04-02T04:32:39.382Z,86.21
2018-04-02T04:33:39.609Z,86.49
2018-04-02T04:34:39.839Z,86.68
2018-04-02T04:35:40.057Z,86.30
2018-04-02T04:36:40.282Z,86.30
2018-04-02T04:37:40.508Z,86.97
2018-04-02T04:38:40.734Z,86.68
2018-04-02T04:39:40.955Z,86.11
2018-04-02T04:40:41.184Z,85.87
2018-04-02T04:41:41.404Z,84.92
2018-04-02T04:42:41.632Z,85.40
2018-04-02T04:43:41.859Z,85.02
2018-04-02T04:44:42.076Z,84.36
2018-04-02T04:45:42.301Z,84.55
2018-04-02T04:46:42.522Z,83.88
2018-04-02T04:47:42.748Z,84.07
2018-04-02T04:48:42.978Z,83.40
2018-04-02T04:49:43.200Z,83.97
2018-04-02T04:50:43.424Z,83.12
2018-04-02T04:51:43.650Z,83.12
2018-04-02T04:52:43.876Z,83.22
2018-04-02T04:53:44.103Z,83.50
2018-04-02T04:54:44.331Z,83.50
2018-04-02T04:55:44.552Z,83.88
2018-04-02T04:56:44.778Z,83.97
2018-04-02T04:57:45.005Z,84.36
2018-04-02T04:58:45.222Z,84.26
2018-04-02T04:59:45.445Z,84.36
2018-04-02T05:00:45.671Z,84.26
2018-04-02T05:01:45.893Z,83.74
2018-04-02T05:02:46.156Z,84.41
2018-04-02T05:03:46.333Z,84.41
2018-04-02T05:04:46.564Z,83.94
2018-04-02T05:05:46.815Z,85.17
2018-04-02T05:06:47.036Z,85.07
2018-04-02T05:07:47.263Z,85.17
2018-04-02T05:08:47.489Z,85.55
2018-04-02T05:09:47.717Z,85.07
2018-04-02T05:10:47.939Z,84.98
2018-04-02T05:11:48.170Z,84.59
2018-04-02T05:12:48.389Z,84.69
2018-04-02T05:13:48.612Z,84.22
2018-04-02T05:14:48.842Z,84.31
2018-04-02T05:15:49.063Z,84.22
2018-04-02T05:16:49.290Z,84.07
2018-04-02T05:17:49.517Z,83.78
2018-04-02T05:18:49.738Z,84.07
2018-04-02T05:19:49.974Z,83.40
2018-04-02T05:20:50.191Z,83.40
2018-04-02T05:21:50.431Z,83.50
2018-04-02T05:22:50.681Z,83.40
2018-04-02T05:23:50.867Z,83.88
2018-04-02T05:24:51.082Z,83.59
2018-04-02T05:25:51.310Z,83.50
2018-04-02T05:26:51.532Z,82.84
2018-04-02T05:27:51.759Z,83.40
2018-04-02T05:28:51.983Z,82.65
2018-04-02T05:29:52.209Z,83.12
2018-04-02T05:30:52.445Z,83.03
2018-04-02T05:31:52.655Z,82.93
2018-04-02T05:32:52.884Z,82.74
2018-04-02T05:33:53.102Z,82.65
2018-04-02T05:34:53.329Z,82.46
2018-04-02T05:35:53.556Z,82.17
2018-04-02T05:36:53.780Z,81.60
2018-04-02T05:37:54.010Z,81.65
2018-04-02T05:38:54.227Z,81.98
2018-04-02T05:39:54.456Z,82.27
2018-04-02T05:40:54.683Z,81.70
2018-04-02T05:41:54.910Z,81.55
2018-04-02T05:42:55.134Z,81.36
2018-04-02T05:43:55.360Z,81.45
2018-04-02T05:44:55.584Z,81.07
2018-04-02T05:45:55.816Z,81.26
2018-04-02T05:46:56.037Z,80.51
2018-04-02T05:47:56.265Z,80.51
2018-04-02T05:48:56.492Z,80.79
2018-04-02T05:49:56.713Z,80.69
2018-04-02T05:50:56.965Z,80.41
2018-04-02T05:51:57.163Z,80.41
2018-04-02T05:52:57.387Z,80.03
2018-04-02T05:53:57.613Z,80.32
2018-04-02T05:54:57.840Z,80.13
2018-04-02T05:55:58.065Z,79.94
2018-04-02T05:56:58.289Z,79.97
2018-04-02T05:57:58.517Z,80.03
2018-04-02T05:58:58.743Z,79.50
2018-04-02T05:59:58.955Z,79.12
2018-04-02T06:00:59.207Z,79.17
2018-04-02T06:01:59.423Z,78.83
2018-04-02T06:02:59.647Z,79.03
2018-04-02T06:03:59.873Z,79.03
2018-04-02T06:05:00.102Z,78.64
2018-04-02T06:06:00.322Z,78.74
2018-04-02T06:07:00.568Z,78.45
2018-04-02T06:08:00.789Z,78.27
2018-04-02T06:09:01.022Z,78.83
2018-04-02T06:10:01.244Z,78.64
2018-04-02T06:11:01.472Z,78.64
2018-04-02T06:12:01.695Z,77.51
2018-04-02T06:13:01.928Z,77.98
2018-04-02T06:14:02.151Z,77.70
2018-04-02T06:15:02.366Z,77.89
2018-04-02T06:16:02.591Z,77.26
2018-04-02T06:17:02.819Z,77.41
2018-04-02T06:18:03.046Z,77.41
2018-04-02T06:19:03.271Z,77.17
2018-04-02T06:20:03.500Z,77.26
2018-04-02T06:21:03.724Z,77.36
2018-04-02T06:22:03.953Z,77.36
2018-04-02T06:23:04.177Z,76.50
2018-04-02T06:24:04.405Z,77.07
2018-04-02T06:25:04.636Z,76.69
2018-04-02T06:26:04.854Z,76.97
2018-04-02T06:27:05.080Z,76.21
2018-04-02T06:28:05.308Z,76.50
2018-04-02T06:29:05.527Z,76.21
2018-04-02T06:30:05.762Z,75.93
2018-04-02T06:31:05.987Z,75.74
2018-04-02T06:32:06.213Z,75.78
2018-04-02T06:33:06.437Z,75.30
2018-04-02T06:34:06.666Z,74.54
2018-04-02T06:35:06.896Z,74.54
2018-04-02T06:36:07.118Z,74.16
2018-04-02T06:37:07.454Z,73.53
2018-04-02T06:38:07.568Z,73.34
2018-04-02T06:39:07.802Z,73.06
2018-04-02T06:40:08.024Z,73.44
2018-04-02T06:41:08.248Z,73.34
2018-04-02T06:42:08.477Z,73.25
2018-04-02T06:43:08.701Z,72.67
2018-04-02T06:44:08.932Z,72.67
2018-04-02T06:45:09.191Z,72.20
2018-04-02T06:46:09.384Z,71.67
2018-04-02T06:47:09.613Z,71.28
2018-04-02T06:48:09.838Z,70.81
2018-04-02T06:49:10.069Z,70.62
2018-04-02T06:50:10.288Z,70.52
2018-04-02T06:51:10.515Z,70.05
2018-04-02T06:52:10.740Z,69.57
2018-04-02T06:53:10.970Z,70.05
2018-04-02T06:54:11.197Z,68.90
2018-04-02T06:55:11.429Z,69.38
2018-04-02T06:56:11.647Z,69.04
2018-04-02T06:57:11.874Z,69.23
2018-04-02T06:58:12.140Z,69.38
2018-04-02T06:59:12.331Z,69.00
2018-04-02T07:00:12.556Z,70.05
2018-04-02T07:01:12.779Z,70.33
2018-04-02T07:02:13.012Z,70.18
2018-04-02T07:03:13.240Z,69.13
2018-04-02T07:04:13.465Z,69.42
2018-04-02T07:05:13.693Z,69.23
2018-04-02T07:06:13.924Z,68.46
2018-04-02T07:07:14.155Z,68.37
2018-04-02T07:08:14.374Z,67.32
2018-04-02T07:09:14.602Z,66.94
2018-04-02T07:10:14.824Z,67.26
2018-04-02T07:11:15.060Z,67.26
2018-04-02T07:12:15.286Z,66.78
2018-04-02T07:13:15.512Z,67.07
2018-04-02T07:14:15.741Z,66.40
2018-04-02T07:15:15.966Z,66.44
2018-04-02T07:16:16.186Z,66.63
2018-04-02T07:17:16.416Z,66.72
2018-04-02T07:18:16.641Z,66.44
2018-04-02T07:19:16.871Z,65.67
2018-04-02T07:20:17.100Z,64.43
2018-04-02T07:21:17.327Z,64.65
2018-04-02T07:22:17.558Z,64.91
2018-04-02T07:23:17.796Z,64.28
2018-04-02T07:24:18.010Z,64.37
2018-04-02T07:25:18.237Z,63.51
2018-04-02T07:26:18.465Z,63.39
2018-04-02T07:27:18.692Z,63.80
2018-04-02T07:28:18.919Z,63.51
2018-04-02T07:29:19.147Z,63.70
2018-04-02T07:30:19.377Z,62.94
2018-04-02T07:31:19.605Z,62.94
2018-04-02T07:32:19.837Z,63.32
2018-04-02T07:33:20.063Z,63.70
2018-04-02T07:34:20.293Z,63.23
2018-04-02T07:35:20.528Z,62.65
2018-04-02T07:36:20.756Z,62.84
2018-04-02T07:37:21.003Z,62.65
2018-04-02T07:38:21.195Z,62.65
2018-04-02T07:39:21.429Z,62.94
2018-04-02T07:40:21.662Z,62.65
2018-04-02T07:41:21.882Z,62.56
2018-04-02T07:42:22.108Z,61.99
2018-04-02T07:43:22.338Z,62.27
2018-04-02T07:44:22.582Z,62.65
2018-04-02T07:45:22.791Z,62.37
2018-04-02T07:46:23.017Z,62.08
2018-04-02T07:47:23.243Z,62.37
2018-04-02T07:48:23.471Z,62.46
2018-04-02T07:49:23.700Z,62.08
2018-04-02T07:50:23.926Z,62.94
2018-04-02T07:51:24.161Z,62.46
2018-04-02T07:52:24.384Z,62.46
2018-04-02T07:53:24.608Z,62.46
2018-04-02T07:54:24.841Z,61.92
2018-04-02T07:55:25.071Z,62.08
2018-04-02T07:56:25.298Z,62.02
2018-04-02T07:57:25.528Z,62.08
2018-04-02T07:58:25.783Z,62.08
2018-04-02T07:59:26.012Z,61.89
2018-04-02T08:00:26.241Z,62.11
2018-04-02T08:01:26.466Z,62.49
2018-04-02T08:02:26.704Z,62.68
2018-04-02T08:03:26.926Z,62.21
2018-04-02T08:04:27.165Z,62.11
2018-04-02T08:05:27.389Z,61.83
2018-04-02T08:06:27.609Z,62.11
2018-04-02T08:07:27.834Z,61.73
2018-04-02T08:08:28.068Z,61.63
2018-04-02T08:09:28.290Z,61.54
2018-04-02T08:10:28.515Z,61.54
2018-04-02T08:11:28.753Z,61.35
2018-04-02T08:12:28.981Z,60.71
2018-04-02T08:13:29.213Z,61.10
2018-04-02T08:14:29.436Z,60.52
2018-04-02T08:15:29.663Z,60.14
2018-04-02T08:16:29.890Z,60.02
2018-04-02T08:17:30.115Z,60.58
2018-04-02T08:18:30.341Z,60.78
2018-04-02T08:19:30.572Z,61.47
2018-04-02T08:20:30.797Z,60.61
2018-04-02T08:21:31.026Z,61.07
2018-04-02T08:22:31.264Z,60.42
2018-04-02T08:23:31.492Z,60.42
2018-04-02T08:24:31.711Z,60.58
2018-04-02T08:25:31.941Z,60.42
2018-04-02T08:26:32.174Z,60.14
2018-04-02T08:27:32.400Z,60.81
2018-04-02T08:28:32.627Z,60.52
2018-04-02T08:29:32.869Z,60.33
2018-04-02T08:30:33.094Z,60.24
2018-04-02T08:31:33.323Z,60.14
2018-04-02T08:32:33.617Z,60.52
2018-04-02T08:33:33.781Z,60.81
2018-04-02T08:34:34.015Z,60.52
2018-04-02T08:35:34.234Z,59.85
2018-04-02T08:36:34.521Z,60.14
2018-04-02T08:37:34.695Z,60.33
2018-04-02T08:38:34.921Z,60.33
2018-04-02T08:39:35.151Z,60.24
2018-04-02T08:40:35.379Z,59.85
2018-04-02T08:41:35.611Z,59.95
2018-04-02T08:42:35.840Z,60.36
2018-04-02T08:43:36.066Z,59.98
2018-04-02T08:44:36.295Z,59.78
2018-04-02T08:45:36.518Z,59.12
2018-04-02T08:46:36.746Z,59.69
2018-04-02T08:47:36.970Z,59.98
2018-04-02T08:48:37.201Z,58.54
2018-04-02T08:49:37.429Z,58.26
2018-04-02T08:50:37.657Z,58.64
2018-04-02T08:51:37.881Z,58.83
2018-04-02T08:52:38.113Z,58.36
2018-04-02T08:53:38.344Z,58.16
2018-04-02T08:54:38.578Z,58.64
2018-04-02T08:55:38.801Z,58.45
2018-04-02T08:56:39.031Z,59.31
2018-04-02T08:57:39.258Z,58.54
2018-04-02T08:58:39.488Z,58.83
2018-04-02T08:59:39.720Z,59.31
2018-04-02T09:00:39.980Z,58.54
2018-04-02T09:01:40.173Z,57.78
2018-04-02T09:02:40.403Z,58.64
2018-04-02T09:03:40.634Z,58.64
2018-04-02T09:04:40.856Z,58.64
2018-04-02T09:05:41.091Z,58.26
2018-04-02T09:06:41.316Z,58.16
2018-04-02T09:07:41.545Z,58.36
2018-04-02T09:08:41.773Z,58.16
2018-04-02T09:09:41.998Z,58.26
2018-04-02T09:10:42.224Z,58.54
2018-04-02T09:11:42.454Z,57.97
2018-04-02T09:12:42.685Z,58.36
2018-04-02T09:13:42.911Z,58.23
2018-04-02T09:14:43.134Z,58.07
2018-04-02T09:15:43.361Z,58.36
2018-04-02T09:16:43.596Z,58.36
2018-04-02T09:17:43.818Z,57.21
2018-04-02T09:18:44.046Z,56.32
2018-04-02T09:19:44.276Z,56.45
2018-04-02T09:20:44.505Z,57.09
2018-04-02T09:21:44.778Z,57.09
2018-04-02T09:22:45.013Z,56.92
2018-04-02T09:23:45.242Z,56.32
2018-04-02T09:24:45.481Z,56.60
2018-04-02T09:25:45.703Z,57.09
2018-04-02T09:26:45.934Z,57.46
2018-04-02T09:27:46.164Z,57.28
2018-04-02T09:28:46.388Z,57.09
2018-04-02T09:29:46.620Z,57.65
2018-04-02T09:30:46.849Z,57.46
2018-04-02T09:31:47.079Z,57.09
2018-04-02T09:32:47.314Z,56.99
2018-04-02T09:33:47.534Z,56.70
2018-04-02T09:34:47.768Z,56.89
2018-04-02T09:35:47.991Z,57.37
2018-04-02T09:36:48.222Z,57.09
2018-04-02T09:37:48.450Z,57.37
2018-04-02T09:38:48.681Z,56.89
2018-04-02T09:39:48.909Z,57.28
2018-04-02T09:40:49.141Z,57.56
2018-04-02T09:41:49.373Z,57.37
2018-04-02T09:42:49.622Z,57.56
2018-04-02T09:43:49.829Z,56.70
2018-04-02T09:44:50.058Z,57.37
2018-04-02T09:45:50.288Z,57.46
2018-04-02T09:46:50.517Z,58.14
2018-04-02T09:47:50.746Z,58.14
2018-04-02T09:48:50.977Z,57.65
2018-04-02T09:49:51.206Z,58.01
2018-04-02T09:50:51.422Z,58.23
2018-04-02T09:51:51.653Z,57.46
2018-04-02T09:52:51.881Z,56.99
2018-04-02T09:53:52.111Z,57.09
2018-04-02T09:54:52.338Z,57.28
2018-04-02T09:55:52.566Z,57.59
2018-04-02T09:56:52.796Z,56.06
2018-04-02T09:57:53.029Z,55.96
2018-04-02T09:58:53.257Z,56.54
2018-04-02T09:59:53.487Z,54.72
2018-04-02T10:00:53.719Z,55.77
2018-04-02T10:01:53.959Z,55.20
2018-04-02T10:02:54.171Z,55.87
2018-04-02T10:03:54.400Z,54.53
2018-04-02T10:04:54.674Z,54.56
2018-04-02T10:05:54.862Z,54.18
2018-04-02T10:06:55.092Z,53.22
2018-04-02T10:07:55.312Z,52.91
2018-04-02T10:08:55.546Z,52.46
2018-04-02T10:09:55.780Z,51.98
2018-04-02T10:10:56.002Z,52.75
2018-04-02T10:11:56.224Z,54.06
2018-04-02T10:12:56.455Z,54.44
2018-04-02T10:13:56.685Z,54.56
2018-04-02T10:14:56.917Z,54.18
2018-04-02T10:15:57.140Z,54.08
2018-04-02T10:16:57.369Z,54.27
2018-04-02T10:17:57.604Z,54.27
2018-04-02T10:18:57.830Z,54.56
2018-04-02T10:19:58.045Z,53.22
2018-04-02T10:20:58.310Z,52.84
2018-04-02T10:21:58.520Z,53.03
2018-04-02T10:22:58.750Z,51.98
2018-04-02T10:23:59.019Z,51.70
2018-04-02T10:24:59.209Z,50.74
2018-04-02T10:25:59.443Z,50.74
2018-04-02T10:26:59.669Z,51.03
2018-04-02T10:27:59.899Z,49.88
2018-04-02T10:29:00.128Z,49.98
2018-04-02T10:30:00.447Z,49.69
2018-04-02T10:31:00.578Z,49.59
2018-04-02T10:32:00.819Z,49.85
2018-04-02T10:33:01.052Z,49.95
2018-04-02T10:34:01.285Z,49.28
2018-04-02T10:35:01.516Z,49.95
2018-04-02T10:36:01.757Z,49.85
2018-04-02T10:37:01.982Z,50.16
2018-04-02T10:38:02.212Z,50.35
2018-04-02T10:39:02.445Z,49.49
2018-04-02T10:40:02.676Z,48.64
2018-04-02T10:41:02.906Z,48.16
2018-04-02T10:42:03.135Z,48.54
2018-04-02T10:43:03.366Z,48.93
2018-04-02T10:44:03.600Z,48.44
2018-04-02T10:45:03.826Z,47.58
2018-04-02T10:46:04.056Z,47.58
2018-04-02T10:47:04.282Z,48.47
2018-04-02T10:48:04.520Z,48.38
2018-04-02T10:49:04.745Z,48.47
2018-04-02T10:50:04.975Z,46.84
2018-04-02T10:51:05.210Z,46.37
2018-04-02T10:52:05.421Z,45.12
2018-04-02T10:53:05.647Z,45.72
2018-04-02T10:54:05.886Z,46.77
2018-04-02T10:55:06.115Z,45.81
2018-04-02T10:56:06.345Z,45.62
2018-04-02T10:57:06.580Z,45.34
2018-04-02T10:58:06.818Z,46.30
2018-04-02T10:59:07.029Z,46.10
2018-04-02T11:00:07.260Z,45.15
2018-04-02T11:01:07.488Z,44.09
2018-04-02T11:02:07.721Z,44.19
2018-04-02T11:03:07.949Z,43.04
2018-04-02T11:04:08.179Z,43.73
2018-04-02T11:05:08.574Z,43.52
2018-04-02T11:06:08.696Z,43.14
2018-04-02T11:07:08.909Z,43.43
2018-04-02T11:08:09.136Z,43.43
2018-04-02T11:09:09.366Z,43.73
2018-04-02T11:10:09.589Z,43.63
2018-04-02T11:11:09.817Z,43.80
2018-04-02T11:12:10.053Z,43.23
2018-04-02T11:13:10.284Z,43.14
2018-04-02T11:14:10.515Z,43.04
2018-04-02T11:15:10.748Z,43.52
2018-04-02T11:16:10.977Z,42.44
2018-04-02T11:17:11.205Z,42.27
2018-04-02T11:18:11.439Z,42.85
2018-04-02T11:19:11.662Z,43.40
2018-04-02T11:20:11.889Z,43.52
2018-04-02T11:21:12.124Z,44.48
2018-04-02T11:22:12.354Z,43.62
2018-04-02T11:23:12.585Z,43.71
2018-04-02T11:24:12.816Z,42.37
2018-04-02T11:25:13.044Z,42.76
2018-04-02T11:26:13.274Z,42.87
2018-04-02T11:27:13.505Z,42.68
2018-04-02T11:28:13.736Z,43.63
2018-04-02T11:29:13.967Z,43.63
2018-04-02T11:30:14.197Z,42.11
2018-04-02T11:31:14.423Z,41.91
2018-04-02T11:32:14.685Z,43.26
2018-04-02T11:33:14.871Z,42.51
2018-04-02T11:34:15.100Z,41.84
2018-04-02T11:35:15.330Z,42.22
2018-04-02T11:36:15.562Z,40.12
2018-04-02T11:37:15.783Z,41.84
2018-04-02T11:38:16.024Z,42.34
2018-04-02T11:39:16.245Z,42.24
2018-04-02T11:40:16.476Z,39.75
2018-04-02T11:41:16.706Z,39.28
2018-04-02T11:42:16.935Z,39.28
2018-04-02T11:43:17.180Z,38.30
2018-04-02T11:44:17.396Z,38.87
2018-04-02T11:45:17.627Z,38.87
2018-04-02T11:46:17.857Z,38.96
2018-04-02T11:47:18.086Z,39.64
2018-04-02T11:48:18.319Z,39.92
2018-04-02T11:49:18.556Z,40.41
2018-04-02T11:50:18.788Z,40.02
2018-04-02T11:51:19.022Z,39.06
2018-04-02T11:52:19.258Z,39.06
2018-04-02T11:53:19.484Z,38.01
2018-04-02T11:54:19.712Z,37.34
2018-04-02T11:55:19.946Z,38.10
2018-04-02T11:56:20.175Z,37.63
2018-04-02T11:57:20.403Z,39.25
2018-04-02T11:58:20.641Z,38.30
2018-04-02T11:59:20.859Z,38.18
2018-04-02T12:00:21.088Z,39.83
2018-04-02T12:01:21.318Z,40.29
2018-04-02T12:02:21.553Z,39.35
2018-04-02T12:03:21.780Z,39.43
2018-04-02T12:04:22.009Z,39.14
2018-04-02T12:05:22.238Z,39.23
2018-04-02T12:06:22.469Z,39.33
2018-04-02T12:07:22.693Z,39.33
2018-04-02T12:08:22.932Z,40.29
2018-04-02T12:09:23.213Z,39.52
2018-04-02T12:10:23.391Z,40.69
2018-04-02T12:11:23.621Z,40.78
2018-04-02T12:12:23.852Z,39.92
2018-04-02T12:13:24.098Z,38.95
2018-04-02T12:14:24.311Z,39.72
2018-04-02T12:15:24.542Z,39.73
2018-04-02T12:16:24.774Z,38.78
2018-04-02T12:17:25.011Z,39.54
2018-04-02T12:18:25.256Z,39.64
2018-04-02T12:19:25.486Z,40.59
2018-04-02T12:20:25.717Z,39.90
2018-04-02T12:21:25.951Z,39.81
2018-04-02T12:22:26.178Z,39.81
2018-04-02T12:23:26.409Z,39.33
2018-04-02T12:24:26.640Z,39.43
2018-04-02T12:25:26.872Z,39.90
2018-04-02T12:26:27.104Z,39.23
2018-04-02T12:27:27.335Z,39.45
2018-04-02T12:28:27.560Z,39.83
2018-04-02T12:29:27.791Z,39.35
2018-04-02T12:30:28.068Z,38.30
2018-04-02T12:31:28.335Z,39.06
2018-04-02T12:32:28.535Z,39.37
2018-04-02T12:33:28.766Z,39.65
2018-04-02T12:34:28.999Z,38.98
2018-04-02T12:35:29.224Z,38.89
2018-04-02T12:36:29.458Z,40.61
2018-04-02T12:37:29.690Z,40.16
2018-04-02T12:38:29.921Z,39.68
2018-04-02T12:39:30.156Z,38.32
2018-04-02T12:40:30.368Z,37.93
2018-04-02T12:41:30.604Z,38.70
2018-04-02T12:42:30.841Z,39.08
2018-04-02T12:43:31.070Z,39.28
2018-04-02T12:44:31.295Z,39.35
2018-04-02T12:45:31.525Z,40.14
2018-04-02T12:46:31.766Z,40.52
2018-04-02T12:47:31.991Z,39.65
2018-04-02T12:48:32.267Z,39.85
2018-04-02T12:49:32.475Z,39.08
2018-04-02T12:50:32.703Z,39.54
2018-04-02T12:51:32.933Z,39.45
2018-04-02T12:52:33.163Z,40.02
2018-04-02T12:53:33.395Z,40.31
2018-04-02T12:54:33.622Z,40.31
2018-04-02T12:55:33.850Z,40.41